Time;durP1;ratioP1;P1;durP2;ratioP2;P2;SDS_P1;SDS_P2;PMS_P1;PMS_P2;Temp;Humidity;BMP_temperature;BMP_pressure;BME280_temperature;BME280_humidity;BME280_pressure;Samples;Min_cycle;Max_cycle;Signal;HPM_P1;HPM_P2
2022/07/20 00:00:37;;;;;;;5.85;3.50;;;21.60;93.00;;;;;;6155584;23;20149;-71
2022/07/20 00:03:12;;;;;;;3.63;3.15;;;21.60;93.10;;;;;;6156024;23;20173;-70
2022/07/20 00:05:39;;;;;;;4.90;3.40;;;21.50;93.20;;;;;;6129770;23;20148;-70
2022/07/20 00:08:05;;;;;;;3.90;3.17;;;21.40;93.60;;;;;;6155959;23;20150;-71
2022/07/20 00:13:16;;;;;;;4.40;3.42;;;21.30;94.30;;;;;;6155691;23;20697;-71
2022/07/20 00:15:43;;;;;;;3.65;3.25;;;21.20;94.90;;;;;;6155680;23;20153;-70
2022/07/20 00:18:08;;;;;;;6.90;3.72;;;21.10;95.80;;;;;;6155752;23;20161;-71
2022/07/20 00:20:35;;;;;;;6.80;3.80;;;21.20;96.70;;;;;;6155718;23;20606;-72
2022/07/20 00:23:01;;;;;;;3.67;3.17;;;21.20;96.80;;;;;;6155315;23;20268;-72
2022/07/20 00:25:27;;;;;;;6.05;3.70;;;21.10;97.10;;;;;;6155605;23;20149;-71
2022/07/20 00:27:52;;;;;;;5.32;3.95;;;21.00;97.80;;;;;;6155743;23;20162;-71
2022/07/20 00:30:18;;;;;;;5.32;3.88;;;20.90;98.30;;;;;;6155536;23;20470;-71
2022/07/20 00:32:44;;;;;;;4.97;3.55;;;20.80;99.00;;;;;;6128830;23;20177;-71
2022/07/20 00:35:13;;;;;;;5.38;3.75;;;20.80;99.90;;;;;;6155591;23;20153;-70
2022/07/20 00:37:39;;;;;;;8.00;4.22;;;20.70;99.90;;;;;;6155602;23;20160;-70
2022/07/20 00:40:06;;;;;;;4.45;3.30;;;20.60;99.90;;;;;;6154739;23;20599;-70
2022/07/20 00:42:33;;;;;;;4.68;3.72;;;20.60;99.90;;;;;;6155320;23;20658;-72
2022/07/20 00:44:58;;;;;;;4.93;3.35;;;20.60;99.90;;;;;;6155578;23;20145;-71
2022/07/20 00:47:24;;;;;;;7.38;3.40;;;20.50;99.90;;;;;;6155161;23;20156;-71
2022/07/20 00:49:50;;;;;;;5.38;3.47;;;20.50;99.90;;;;;;6155090;23;20173;-71
2022/07/20 00:52:16;;;;;;;5.63;4.00;;;20.50;99.90;;;;;;6155368;23;20312;-71
2022/07/20 00:54:48;;;;;;;5.38;4.18;;;20.50;99.90;;;;;;6155524;23;20177;-71
2022/07/20 00:57:15;;;;;;;7.95;3.85;;;20.50;99.90;;;;;;6155059;23;20130;-72
2022/07/20 00:59:40;;;;;;;4.68;3.60;;;20.50;99.90;;;;;;6155124;23;20149;-71
2022/07/20 01:02:07;;;;;;;4.03;3.42;;;20.50;99.90;;;;;;6155398;23;20737;-70
2022/07/20 01:04:33;;;;;;;6.35;3.97;;;20.50;99.90;;;;;;6155293;23;20149;-71
2022/07/20 01:06:59;;;;;;;3.75;3.45;;;20.40;99.90;;;;;;6155019;23;20153;-71
2022/07/20 01:09:26;;;;;;;4.80;3.80;;;20.40;99.90;;;;;;6154793;23;20231;-71
2022/07/20 01:11:51;;;;;;;3.83;3.53;;;20.30;99.90;;;;;;6155171;23;20177;-71
2022/07/20 01:14:17;;;;;;;4.28;3.53;;;20.20;99.90;;;;;;6154744;23;20184;-71
2022/07/20 01:16:42;;;;;;;4.20;3.80;;;20.10;99.90;;;;;;6155197;23;20149;-71
2022/07/20 01:19:08;;;;;;;6.35;4.10;;;20.10;99.90;;;;;;6154832;23;20145;-70
2022/07/20 01:21:40;;;;;;;4.90;4.22;;;20.00;99.90;;;;;;6155066;23;20192;-70
2022/07/20 01:24:10;;;;;;;6.15;3.88;;;20.00;99.90;;;;;;6155039;23;20133;-71
2022/07/20 01:26:40;;;;;;;4.45;3.60;;;19.80;99.90;;;;;;6155425;23;20156;-72
2022/07/20 01:29:08;;;;;;;4.95;4.45;;;19.80;99.90;;;;;;6155307;23;20160;-71
2022/07/20 01:31:34;;;;;;;5.53;3.80;;;19.80;99.90;;;;;;6154709;23;20177;-71
2022/07/20 01:34:00;;;;;;;4.55;4.03;;;19.80;99.90;;;;;;6154866;23;20256;-71
2022/07/20 01:36:25;;;;;;;4.43;3.85;;;19.90;99.90;;;;;;6155146;23;20670;-72
2022/07/20 01:38:52;;;;;;;5.25;3.40;;;19.90;99.90;;;;;;6154525;23;20208;-72
2022/07/20 01:41:17;;;;;;;3.90;3.60;;;19.80;99.90;;;;;;6155263;23;20252;-72
2022/07/20 01:43:43;;;;;;;4.90;3.85;;;19.80;99.90;;;;;;6155063;23;20181;-72
2022/07/20 01:46:09;;;;;;;6.13;3.92;;;19.80;99.90;;;;;;6155348;23;20609;-71
2022/07/20 01:48:34;;;;;;;5.57;3.60;;;19.70;99.90;;;;;;6154400;23;20273;-71
2022/07/20 01:51:00;;;;;;;3.50;3.20;;;19.70;99.90;;;;;;6155215;23;20652;-72
2022/07/20 01:53:25;;;;;;;3.58;3.33;;;19.60;99.90;;;;;;6154897;23;20681;-72
2022/07/20 01:55:52;;;;;;;5.50;3.90;;;19.50;99.90;;;;;;6154664;23;20162;-72
2022/07/20 01:58:18;;;;;;;3.90;3.60;;;19.40;99.90;;;;;;6154932;23;20551;-71
2022/07/20 02:00:43;;;;;;;3.92;3.50;;;19.40;99.90;;;;;;6154791;23;20149;-72
2022/07/20 02:03:09;;;;;;;11.27;4.50;;;19.40;99.90;;;;;;6155027;23;20153;-71
2022/07/20 02:05:34;;;;;;;6.50;4.38;;;19.40;99.90;;;;;;6154791;23;20615;-71
2022/07/20 02:08:00;;;;;;;3.95;3.65;;;19.50;99.90;;;;;;6155132;23;20156;-72
2022/07/20 02:10:26;;;;;;;5.93;3.53;;;19.50;99.90;;;;;;6154360;23;20233;-72
2022/07/20 02:12:52;;;;;;;4.32;3.92;;;19.40;99.90;;;;;;6154497;23;20173;-72
2022/07/20 02:18:12;;;;;;;4.07;3.67;;;19.40;99.90;;;;;;6120803;23;20157;-71
2022/07/20 02:20:39;;;;;;;6.13;4.13;;;19.40;99.90;;;;;;6154130;23;20149;-71
2022/07/20 02:23:06;;;;;;;3.72;3.42;;;19.30;99.90;;;;;;6155012;23;20591;-71
2022/07/20 02:25:34;;;;;;;5.97;3.80;;;19.20;99.90;;;;;;6155867;23;20153;-71
2022/07/20 02:27:59;;;;;;;3.70;3.40;;;19.10;99.90;;;;;;6155464;23;20149;-71
2022/07/20 02:30:25;;;;;;;6.13;3.63;;;19.10;99.90;;;;;;6154343;23;20157;-72
2022/07/20 02:32:51;;;;;;;3.53;3.28;;;19.10;99.90;;;;;;6154595;23;20649;-71
2022/07/20 02:35:17;;;;;;;5.57;3.63;;;19.00;99.90;;;;;;6154948;23;20489;-71
2022/07/20 02:37:43;;;;;;;4.20;3.40;;;19.00;99.90;;;;;;6154582;23;20160;-70
2022/07/20 02:40:09;;;;;;;4.30;3.90;;;18.90;99.90;;;;;;6154500;23;20169;-69
2022/07/20 02:42:35;;;;;;;4.35;3.95;;;18.90;99.90;;;;;;6154828;23;20165;-70
2022/07/20 02:45:01;;;;;;;4.68;4.10;;;18.90;99.90;;;;;;6154816;23;20232;-69
2022/07/20 02:47:27;;;;;;;4.03;3.30;;;18.90;99.90;;;;;;6155033;23;20493;-70
2022/07/20 02:49:52;;;;;;;4.60;3.47;;;18.80;99.90;;;;;;6154595;23;20185;-71
2022/07/20 02:52:18;;;;;;;4.40;3.92;;;18.70;99.90;;;;;;6154750;23;20173;-70
2022/07/20 02:54:43;;;;;;;3.65;3.35;;;18.60;99.90;;;;;;6154666;23;20177;-70
2022/07/20 02:57:09;;;;;;;4.43;4.00;;;18.60;99.90;;;;;;6154621;23;20544;-70
2022/07/20 02:59:35;;;;;;;4.20;3.80;;;18.60;99.90;;;;;;6154291;23;20141;-71
2022/07/20 03:02:00;;;;;;;4.18;3.88;;;18.60;99.90;;;;;;6154599;23;20165;-71
2022/07/20 03:04:26;;;;;;;4.10;3.63;;;18.50;99.90;;;;;;6155217;23;20153;-71
2022/07/20 03:06:51;;;;;;;3.95;3.50;;;18.50;99.90;;;;;;6155779;23;20212;-71
2022/07/20 03:09:17;;;;;;;4.13;3.80;;;18.40;99.90;;;;;;6155306;23;20228;-71
2022/07/20 03:11:43;;;;;;;4.15;3.83;;;18.40;99.90;;;;;;6155702;23;20554;-72
2022/07/20 03:14:08;;;;;;;5.57;3.70;;;18.40;99.90;;;;;;6155441;23;20180;-71
2022/07/20 03:16:34;;;;;;;4.15;3.85;;;18.40;99.90;;;;;;6155853;23;20149;-70
2022/07/20 03:19:00;;;;;;;4.93;3.65;;;18.40;99.90;;;;;;6155235;23;20171;-71
2022/07/20 03:21:25;;;;;;;6.30;4.00;;;18.50;99.90;;;;;;6154460;23;20610;-70
2022/07/20 03:23:52;;;;;;;4.65;3.83;;;18.50;99.90;;;;;;6155594;23;20211;-70
2022/07/20 03:26:19;;;;;;;4.68;3.72;;;18.40;99.90;;;;;;6154718;23;20157;-72
2022/07/20 03:28:45;;;;;;;4.30;3.90;;;18.40;99.90;;;;;;6153744;23;20153;-72
2022/07/20 03:31:11;;;;;;;4.68;3.60;;;18.30;99.90;;;;;;6153695;23;20173;-73
2022/07/20 03:33:37;;;;;;;4.30;3.65;;;18.30;99.90;;;;;;6154120;23;20177;-73
2022/07/20 03:36:03;;;;;;;5.28;3.83;;;18.20;99.90;;;;;;6154125;23;20150;-73
2022/07/20 03:38:29;;;;;;;5.78;4.30;;;18.20;99.90;;;;;;6153905;23;20176;-73
2022/07/20 03:40:54;;;;;;;5.53;4.05;;;18.20;99.90;;;;;;6153553;23;20149;-72
2022/07/20 03:43:21;;;;;;;4.82;3.80;;;18.20;99.90;;;;;;6154007;23;20160;-73
2022/07/20 03:45:47;;;;;;;4.20;3.80;;;18.20;99.90;;;;;;6153461;23;20156;-74
2022/07/20 03:48:13;;;;;;;5.82;4.18;;;18.10;99.90;;;;;;6153734;23;20153;-72
2022/07/20 03:50:39;;;;;;;4.72;4.10;;;18.00;99.90;;;;;;6153725;23;20488;-73
2022/07/20 03:53:04;;;;;;;4.13;3.70;;;17.90;99.90;;;;;;6153869;23;20173;-72
2022/07/20 03:55:30;;;;;;;5.90;4.22;;;17.90;99.90;;;;;;6154051;23;20150;-72
2022/07/20 03:57:55;;;;;;;6.20;4.20;;;17.90;99.90;;;;;;6151223;23;20168;-72
2022/07/20 04:00:21;;;;;;;4.55;4.00;;;17.90;99.90;;;;;;6153183;23;20535;-73
2022/07/20 04:02:47;;;;;;;7.30;3.85;;;17.90;99.90;;;;;;6154221;23;20165;-72
2022/07/20 04:05:12;;;;;;;7.97;4.10;;;17.90;99.90;;;;;;6153877;23;20150;-72
2022/07/20 04:07:38;;;;;;;3.95;3.65;;;17.90;99.90;;;;;;6153724;23;20149;-74
2022/07/20 04:10:04;;;;;;;5.88;4.45;;;17.90;99.90;;;;;;6153659;23;20467;-72
2022/07/20 04:12:29;;;;;;;5.00;3.97;;;17.90;99.90;;;;;;6153877;23;20174;-73
2022/07/20 04:14:55;;;;;;;7.30;3.88;;;18.00;99.90;;;;;;6154071;23;20184;-73
2022/07/20 04:17:22;;;;;;;5.13;3.70;;;18.00;99.90;;;;;;6153773;23;20185;-73
2022/07/20 04:19:48;;;;;;;5.18;3.97;;;18.10;99.90;;;;;;6153936;23;20200;-73
2022/07/20 04:22:14;;;;;;;4.32;3.95;;;18.20;99.90;;;;;;6153279;23;20169;-73
2022/07/20 04:24:39;;;;;;;4.03;3.60;;;18.40;99.90;;;;;;6153894;23;20661;-73
2022/07/20 04:27:05;;;;;;;4.30;3.90;;;18.40;99.90;;;;;;6153835;23;20201;-73
2022/07/20 04:29:31;;;;;;;4.95;3.97;;;18.40;99.90;;;;;;6153446;23;20181;-73
2022/07/20 04:31:57;;;;;;;5.00;3.95;;;18.40;99.90;;;;;;6152246;23;20227;-73
2022/07/20 04:34:23;;;;;;;4.57;3.85;;;18.40;99.90;;;;;;6155473;23;20177;-73
2022/07/20 04:36:49;;;;;;;5.95;4.03;;;18.50;99.90;;;;;;6155608;23;20182;-73
2022/07/20 04:39:14;;;;;;;5.95;3.92;;;18.60;99.90;;;;;;6155443;23;20153;-73
2022/07/20 04:41:40;;;;;;;4.15;3.85;;;18.70;99.90;;;;;;6155114;23;20555;-72
2022/07/20 04:44:06;;;;;;;4.38;3.97;;;18.80;99.90;;;;;;6155187;23;20157;-72
2022/07/20 04:46:32;;;;;;;4.57;4.00;;;18.90;99.90;;;;;;6155179;23;20153;-73
2022/07/20 04:48:58;;;;;;;5.55;4.07;;;19.00;99.90;;;;;;6128368;23;20621;-73
2022/07/20 04:51:24;;;;;;;5.40;4.20;;;19.00;99.90;;;;;;6155411;23;20662;-73
2022/07/20 04:53:49;;;;;;;7.18;4.65;;;19.00;99.90;;;;;;6155383;23;20521;-73
2022/07/20 04:56:18;;;;;;;5.85;4.40;;;19.10;99.90;;;;;;6155073;23;20182;-74
2022/07/20 04:58:43;;;;;;;4.25;3.90;;;19.20;99.90;;;;;;6155236;23;20221;-76
2022/07/20 05:01:09;;;;;;;6.63;4.22;;;19.30;99.90;;;;;;6155087;23;20173;-76
2022/07/20 05:03:35;;;;;;;6.55;4.63;;;19.30;99.90;;;;;;6155385;23;20157;-76
2022/07/20 05:06:00;;;;;;;5.78;4.75;;;19.40;99.90;;;;;;6155005;23;20149;-76
2022/07/20 05:08:26;;;;;;;5.13;4.18;;;19.50;99.90;;;;;;6155305;23;20160;-77
2022/07/20 05:10:51;;;;;;;5.95;4.15;;;19.60;99.90;;;;;;6155035;23;20160;-76
2022/07/20 05:13:17;;;;;;;5.53;4.05;;;19.70;99.90;;;;;;6128653;23;20184;-76
2022/07/20 05:15:43;;;;;;;6.63;4.53;;;19.80;99.90;;;;;;6155029;23;20146;-77
2022/07/20 05:18:08;;;;;;;4.78;4.07;;;19.90;99.90;;;;;;6154987;23;20146;-76
2022/07/20 05:20:34;;;;;;;5.60;4.32;;;20.00;99.90;;;;;;6154577;23;20161;-76
2022/07/20 05:22:59;;;;;;;7.60;4.60;;;20.10;99.90;;;;;;6154825;23;20197;-76
2022/07/20 05:25:25;;;;;;;4.55;4.15;;;20.20;99.90;;;;;;6154900;23;20149;-76
2022/07/20 05:27:50;;;;;;;4.22;3.80;;;20.30;99.90;;;;;;6155116;23;20629;-77
2022/07/20 05:30:16;;;;;;;4.97;4.38;;;20.40;99.90;;;;;;6155005;23;20228;-77
2022/07/20 05:32:42;;;;;;;7.53;4.50;;;20.50;99.90;;;;;;6155085;23;20177;-78
2022/07/20 05:35:08;;;;;;;4.60;4.20;;;20.60;99.90;;;;;;6154845;23;20184;-77
2022/07/20 05:37:34;;;;;;;4.97;4.45;;;20.60;99.90;;;;;;6155533;23;20196;-76
2022/07/20 05:40:00;;;;;;;4.45;4.10;;;20.70;99.90;;;;;;6154368;23;20150;-77
2022/07/20 05:42:25;;;;;;;5.65;3.70;;;20.80;99.90;;;;;;6156335;23;20558;-77
2022/07/20 05:44:51;;;;;;;4.30;3.97;;;20.90;99.90;;;;;;6154823;23;20153;-77
2022/07/20 05:47:17;;;;;;;5.80;4.10;;;21.10;99.90;;;;;;6155875;23;20157;-76
2022/07/20 05:49:47;;;;;;;6.05;4.00;;;21.20;99.90;;;;;;6157040;23;20149;-76
2022/07/20 05:52:13;;;;;;;4.97;3.80;;;21.30;99.90;;;;;;6156186;23;20169;-75
2022/07/20 05:54:39;;;;;;;5.90;4.82;;;21.40;99.90;;;;;;6154746;23;20177;-79
2022/07/20 05:57:04;;;;;;;9.02;5.15;;;21.50;99.90;;;;;;6156459;23;20220;-76
2022/07/20 05:59:30;;;;;;;4.57;4.15;;;21.60;99.90;;;;;;6126773;23;20191;-76
2022/07/20 06:01:55;;;;;;;5.20;3.78;;;21.60;99.90;;;;;;6153596;23;20264;-75
2022/07/20 06:04:21;;;;;;;7.00;4.18;;;21.70;99.90;;;;;;6128531;23;20164;-75
2022/07/20 06:06:46;;;;;;;5.72;4.25;;;21.80;99.90;;;;;;6155209;23;20583;-76
2022/07/20 06:09:12;;;;;;;7.22;4.65;;;21.90;99.90;;;;;;6153411;23;20153;-77
2022/07/20 06:11:38;;;;;;;4.85;3.67;;;22.00;99.90;;;;;;6128363;23;20638;-76
2022/07/20 06:14:03;;;;;;;6.03;4.63;;;22.20;99.90;;;;;;6128323;23;20192;-77
2022/07/20 06:16:29;;;;;;;6.65;4.00;;;22.30;99.90;;;;;;6153598;23;20591;-77
2022/07/20 06:18:54;;;;;;;5.10;4.07;;;22.40;99.90;;;;;;6154051;23;20133;-76
2022/07/20 06:21:20;;;;;;;4.93;3.80;;;22.60;99.40;;;;;;6154932;23;20166;-77
2022/07/20 06:23:46;;;;;;;5.13;3.92;;;22.70;99.10;;;;;;6127572;23;20236;-78
2022/07/20 06:26:11;;;;;;;4.57;3.92;;;22.80;98.50;;;;;;6155092;23;20548;-77
2022/07/20 06:28:37;;;;;;;5.28;3.88;;;22.90;97.50;;;;;;6156936;23;20150;-78
2022/07/20 06:31:04;;;;;;;3.70;3.42;;;23.10;96.60;;;;;;6155165;23;20169;-78
2022/07/20 06:33:29;;;;;;;5.25;3.88;;;23.10;96.40;;;;;;6155522;23;20181;-77
2022/07/20 06:35:55;;;;;;;9.45;4.00;;;23.30;95.30;;;;;;6155484;23;20233;-77
2022/07/20 06:38:20;;;;;;;3.70;3.50;;;23.40;94.80;;;;;;6154179;23;20149;-76
2022/07/20 06:40:46;;;;;;;5.03;3.35;;;23.60;93.00;;;;;;6154141;23;20145;-76
2022/07/20 06:43:12;;;;;;;6.03;3.72;;;23.70;92.20;;;;;;6154224;23;20228;-76
2022/07/20 06:45:37;;;;;;;4.00;3.65;;;23.90;92.10;;;;;;6153003;23;20153;-77
2022/07/20 06:48:03;;;;;;;3.35;3.15;;;24.00;91.10;;;;;;6155331;23;20261;-77
2022/07/20 06:50:29;;;;;;;5.25;3.80;;;24.20;91.00;;;;;;6154867;23;20160;-75
2022/07/20 06:52:54;;;;;;;6.35;3.67;;;24.30;90.50;;;;;;6155045;23;20176;-77
2022/07/20 06:55:20;;;;;;;4.95;4.00;;;24.50;90.10;;;;;;6154964;23;20150;-77
2022/07/20 06:57:46;;;;;;;5.97;3.92;;;24.60;88.80;;;;;;6155511;23;20165;-76
2022/07/20 07:00:13;;;;;;;5.25;3.33;;;24.80;90.60;;;;;;6127870;23;20161;-74
2022/07/20 07:02:39;;;;;;;4.30;3.20;;;24.90;88.70;;;;;;6154409;23;20172;-74
2022/07/20 07:05:05;;;;;;;4.80;3.25;;;25.20;85.50;;;;;;6155221;23;20153;-77
2022/07/20 07:07:31;;;;;;;5.20;3.38;;;25.30;84.90;;;;;;6154900;23;20153;-74
2022/07/20 07:09:57;;;;;;;8.93;3.95;;;25.50;81.50;;;;;;6154910;23;20595;-76
2022/07/20 07:12:22;;;;;;;8.25;3.65;;;25.70;82.00;;;;;;6154949;23;20169;-76
2022/07/20 07:14:48;;;;;;;4.90;3.20;;;25.90;79.00;;;;;;6155092;23;20173;-74
2022/07/20 07:17:14;;;;;;;6.70;3.25;;;26.10;78.70;;;;;;6154386;23;20487;-76
2022/07/20 07:19:40;;;;;;;6.65;2.90;;;26.20;76.30;;;;;;6128343;23;20157;-75
2022/07/20 07:22:06;;;;;;;3.97;3.35;;;26.50;76.00;;;;;;6155198;23;20202;-76
2022/07/20 07:24:31;;;;;;;6.03;2.95;;;26.60;76.00;;;;;;6155128;23;20158;-76
2022/07/20 07:26:57;;;;;;;9.43;3.30;;;26.80;72.70;;;;;;6154644;23;20153;-76
2022/07/20 07:29:24;;;;;;;5.82;3.15;;;26.90;72.40;;;;;;6153655;23;20149;-72
2022/07/20 07:31:50;;;;;;;4.00;2.72;;;27.00;72.30;;;;;;6154134;23;20205;-73
2022/07/20 07:34:16;;;;;;;5.07;2.80;;;27.20;70.80;;;;;;6154237;23;20188;-72
2022/07/20 07:36:41;;;;;;;4.95;2.92;;;27.30;71.60;;;;;;6154046;23;20618;-73
2022/07/20 07:39:08;;;;;;;2.83;2.50;;;27.40;71.00;;;;;;6153732;23;20149;-73
2022/07/20 07:41:33;;;;;;;4.88;2.80;;;27.50;68.60;;;;;;6154667;23;20508;-74
2022/07/20 07:43:59;;;;;;;2.70;2.50;;;27.50;68.00;;;;;;6153559;23;20240;-74
2022/07/20 07:46:24;;;;;;;3.60;2.58;;;27.60;68.90;;;;;;6154261;23;20153;-72
2022/07/20 07:48:50;;;;;;;2.55;2.38;;;27.60;66.70;;;;;;6152997;23;20208;-73
2022/07/20 07:51:16;;;;;;;4.68;2.70;;;27.80;66.80;;;;;;6153416;23;20641;-73
2022/07/20 07:53:42;;;;;;;3.08;2.80;;;28.10;66.20;;;;;;6154927;23;20185;-72
2022/07/20 07:56:07;;;;;;;3.30;2.72;;;28.30;65.80;;;;;;6154317;23;20149;-70
2022/07/20 07:58:33;;;;;;;2.47;2.28;;;28.40;64.20;;;;;;6153745;23;20511;-72
2022/07/20 08:00:59;;;;;;;4.43;2.65;;;28.40;64.90;;;;;;6154739;23;20566;-71
2022/07/20 08:03:24;;;;;;;4.28;3.10;;;28.50;64.00;;;;;;6154035;23;20157;-69
2022/07/20 08:05:50;;;;;;;2.92;2.72;;;28.50;65.00;;;;;;6153721;23;20498;-70
2022/07/20 08:08:16;;;;;;;4.78;2.58;;;28.60;64.30;;;;;;6154802;23;20200;-71
2022/07/20 08:10:44;;;;;;;5.47;2.72;;;28.70;64.50;;;;;;6155730;23;20157;-72
2022/07/20 08:13:10;;;;;;;3.90;2.70;;;28.70;64.50;;;;;;6154630;23;20300;-70
2022/07/20 08:15:37;;;;;;;2.63;2.40;;;28.70;64.30;;;;;;6155671;23;20150;-72
2022/07/20 08:18:03;;;;;;;4.85;2.80;;;28.70;64.50;;;;;;6156458;23;20216;-70
2022/07/20 08:20:29;;;;;;;4.10;2.63;;;28.80;64.10;;;;;;6156230;23;20145;-70
2022/07/20 08:22:55;;;;;;;2.97;2.22;;;28.80;63.90;;;;;;6155256;23;20165;-69
2022/07/20 08:25:21;;;;;;;3.63;2.78;;;28.90;64.20;;;;;;6155570;23;20466;-71
2022/07/20 08:27:47;;;;;;;2.65;2.45;;;28.90;63.90;;;;;;6156249;23;20226;-70
2022/07/20 08:30:14;;;;;;;3.17;2.80;;;28.90;64.30;;;;;;6155993;23;20176;-70
2022/07/20 08:32:40;;;;;;;2.58;2.38;;;29.00;63.90;;;;;;6156154;23;20169;-71
2022/07/20 08:35:06;;;;;;;4.43;2.92;;;29.10;63.80;;;;;;6155944;23;20179;-69
2022/07/20 08:37:32;;;;;;;3.05;2.20;;;29.20;64.20;;;;;;6156520;23;20531;-70
2022/07/20 08:39:58;;;;;;;2.80;2.60;;;29.20;63.20;;;;;;6156243;23;20146;-69
2022/07/20 08:42:23;;;;;;;2.63;2.40;;;29.30;63.20;;;;;;6155887;23;20630;-71
2022/07/20 08:44:50;;;;;;;2.83;2.55;;;29.40;63.00;;;;;;6156402;23;20160;-68
2022/07/20 08:47:16;;;;;;;7.28;2.83;;;29.50;62.70;;;;;;6156038;23;20504;-70
2022/07/20 08:49:47;;;;;;;3.08;2.28;;;29.70;61.40;;;;;;6155169;23;20558;-69
2022/07/20 08:52:13;;;;;;;3.35;2.60;;;29.80;61.20;;;;;;6156243;23;20169;-68
2022/07/20 08:54:39;;;;;;;3.33;3.03;;;30.00;61.50;;;;;;6155638;23;20181;-68
2022/07/20 08:57:16;;;;;;;3.20;2.67;;;30.20;61.70;;;;;;6155292;23;20157;-68
2022/07/20 08:59:43;;;;;;;3.42;2.33;;;30.30;60.30;;;;;;6155568;23;20142;-68
2022/07/20 09:02:10;;;;;;;5.45;2.75;;;30.40;59.40;;;;;;6155427;23;20195;-69
2022/07/20 09:04:55;;;;;;;6.13;2.70;;;30.60;59.60;;;;;;6154114;23;20599;-70
2022/07/20 09:07:44;;;;;;;2.85;2.60;;;30.70;59.50;;;;;;6154758;23;20228;-71
2022/07/20 09:10:13;;;;;;;7.43;2.88;;;30.80;58.90;;;;;;6155078;23;20217;-73
2022/07/20 09:12:58;;;;;;;3.90;2.70;;;30.90;59.00;;;;;;6155002;23;20248;-72
2022/07/20 09:15:52;;;;;;;5.97;3.00;;;31.00;58.80;;;;;;6154576;23;20187;-69
2022/07/20 09:18:24;;;;;;;3.13;2.80;;;31.20;58.20;;;;;;6151964;23;20638;-70
2022/07/20 09:20:51;;;;;;;4.60;2.88;;;31.30;58.00;;;;;;6154180;23;20129;-70
2022/07/20 09:23:20;;;;;;;3.22;2.80;;;31.50;57.40;;;;;;6154755;23;20180;-72
2022/07/20 09:26:13;;;;;;;4.38;2.40;;;31.60;57.30;;;;;;6154168;23;20145;-70
2022/07/20 09:28:54;;;;;;;7.80;2.42;;;31.70;56.60;;;;;;6124573;23;20677;-70
2022/07/20 09:31:22;;;;;;;3.17;2.88;;;31.90;56.60;;;;;;6154812;23;20395;-70
2022/07/20 09:34:03;;;;;;;4.95;2.90;;;32.10;56.80;;;;;;6155584;23;20251;-69
2022/07/20 09:36:33;;;;;;;5.65;2.75;;;32.40;55.80;;;;;;6157195;23;20632;-68
2022/07/20 09:39:12;;;;;;;7.50;3.10;;;33.50;54.80;;;;;;6156017;23;20172;-69
2022/07/20 09:41:40;;;;;;;2.50;2.30;;;35.70;51.70;;;;;;6154371;23;20189;-69
2022/07/20 09:44:10;;;;;;;4.00;2.63;;;37.90;47.50;;;;;;6155406;23;20144;-72
2022/07/20 09:46:38;;;;;;;2.40;2.17;;;40.10;44.00;;;;;;6129492;23;20191;-70
2022/07/20 09:49:07;;;;;;;4.20;2.38;;;41.70;41.40;;;;;;6155369;23;20482;-71
2022/07/20 09:51:58;;;;;;;2.65;2.40;;;42.40;39.10;;;;;;6155689;23;20168;-70
2022/07/20 09:54:24;;;;;;;4.15;2.35;;;43.10;38.40;;;;;;6155724;23;20168;-70
2022/07/20 09:56:51;;;;;;;2.67;2.53;;;43.60;38.00;;;;;;6155976;23;20227;-71
2022/07/20 09:59:18;;;;;;;6.82;2.58;;;43.70;37.40;;;;;;6155114;23;20195;-70
2022/07/20 10:01:49;;;;;;;3.03;2.58;;;43.70;37.00;;;;;;6155729;23;20681;-73
2022/07/20 10:04:16;;;;;;;3.63;2.38;;;44.30;37.00;;;;;;6155620;23;20486;-70
2022/07/20 10:06:46;;;;;;;4.55;2.30;;;44.70;36.00;;;;;;6155665;23;20141;-69
2022/07/20 10:09:14;;;;;;;5.75;2.35;;;45.00;35.80;;;;;;6155138;23;20676;-69
2022/07/20 10:11:40;;;;;;;2.13;1.98;;;46.20;35.20;;;;;;6156245;23;20649;-68
2022/07/20 10:14:07;;;;;;;4.13;2.40;;;46.90;34.00;;;;;;6156964;23;20180;-69
2022/07/20 10:16:55;;;;;;;3.58;2.25;;;47.00;33.30;;;;;;6155613;23;20177;-70
2022/07/20 10:19:40;;;;;;;5.28;2.35;;;47.50;33.00;;;;;;6154968;23;20598;-70
2022/07/20 10:22:08;;;;;;;5.90;2.28;;;47.40;32.90;;;;;;6156673;23;20169;-69
2022/07/20 10:24:35;;;;;;;4.53;2.28;;;47.50;32.90;;;;;;6155196;23;20160;-69
2022/07/20 10:27:19;;;;;;;3.65;2.28;;;48.00;33.50;;;;;;6155719;23;20157;-69
2022/07/20 10:29:49;;;;;;;3.78;2.20;;;48.10;32.40;;;;;;6154935;23;20262;-70
2022/07/20 10:32:20;;;;;;;3.83;2.17;;;49.00;31.30;;;;;;6154567;23;20184;-72
2022/07/20 10:34:59;;;;;;;2.97;2.30;;;49.20;31.00;;;;;;6127891;23;20308;-69
2022/07/20 10:37:25;;;;;;;2.20;2.10;;;49.40;31.00;;;;;;6153266;23;20137;-71
2022/07/20 10:39:56;;;;;;;2.05;1.95;;;49.80;30.70;;;;;;6151940;23;20304;-71
2022/07/20 10:42:39;;;;;;;4.25;2.42;;;49.50;31.00;;;;;;6152623;23;20642;-70
2022/07/20 10:45:11;;;;;;;4.40;2.22;;;48.90;31.10;;;;;;6154354;23;20133;-72
2022/07/20 10:47:48;;;;;;;3.17;2.38;;;48.50;31.30;;;;;;6153778;23;20156;-69
2022/07/20 10:50:26;;;;;;;4.15;2.55;;;48.60;31.80;;;;;;6154282;23;20163;-71
2022/07/20 10:52:58;;;;;;;4.05;2.40;;;48.70;30.90;;;;;;6154592;23;20288;-69
2022/07/20 10:55:35;;;;;;;2.25;2.08;;;49.10;31.30;;;;;;6153774;23;20629;-68
2022/07/20 10:58:05;;;;;;;2.63;2.30;;;49.30;31.00;;;;;;6153553;23;20169;-72
2022/07/20 11:00:34;;;;;;;3.60;2.15;;;49.30;31.10;;;;;;6153942;23;20153;-72
2022/07/20 11:03:01;;;;;;;4.50;1.90;;;49.20;30.30;;;;;;6154292;23;20192;-72
2022/07/20 11:05:27;;;;;;;2.42;2.20;;;49.30;30.30;;;;;;6153602;23;20199;-72
2022/07/20 11:07:53;;;;;;;3.78;2.33;;;49.40;30.40;;;;;;6154325;23;20149;-71
2022/07/20 11:10:27;;;;;;;2.58;2.28;;;49.90;30.10;;;;;;6153692;23;20220;-71
2022/07/20 11:12:56;;;;;;;3.03;2.05;;;49.40;30.40;;;;;;6154059;23;20168;-73
2022/07/20 11:15:22;;;;;;;2.40;2.20;;;49.90;30.00;;;;;;6154146;23;20156;-71
2022/07/20 11:17:48;;;;;;;4.25;2.38;;;49.40;30.40;;;;;;6153338;23;20597;-71
2022/07/20 11:20:17;;;;;;;2.35;2.00;;;49.60;30.50;;;;;;6154276;23;20148;-72
2022/07/20 11:22:44;;;;;;;2.65;2.00;;;49.60;30.50;;;;;;6154440;23;20223;-73
2022/07/20 11:25:09;;;;;;;3.35;2.20;;;49.60;30.50;;;;;;6154399;23;20156;-73
2022/07/20 11:27:35;;;;;;;4.03;2.25;;;49.40;30.40;;;;;;6128236;23;20609;-71
2022/07/20 11:30:01;;;;;;;4.97;2.20;;;49.30;31.00;;;;;;6153706;23;20180;-71
2022/07/20 11:32:27;;;;;;;2.10;1.90;;;49.40;30.10;;;;;;6154089;23;20173;-72
2022/07/20 11:34:53;;;;;;;3.63;2.40;;;49.90;30.30;;;;;;6154044;23;20539;-72
2022/07/20 11:37:20;;;;;;;4.82;2.30;;;50.40;30.30;;;;;;6154385;23;20199;-72
2022/07/20 11:39:46;;;;;;;4.57;2.10;;;50.60;30.10;;;;;;6153923;23;20537;-73
2022/07/20 11:42:14;;;;;;;4.05;2.38;;;50.50;29.90;;;;;;6153917;23;20629;-72
2022/07/20 11:44:41;;;;;;;2.33;2.10;;;49.90;30.00;;;;;;6153810;23;20553;-72
2022/07/20 11:47:08;;;;;;;2.03;1.92;;;50.50;29.70;;;;;;6154256;23;20149;-73
2022/07/20 11:49:33;;;;;;;4.78;2.33;;;50.60;29.00;;;;;;6153723;23;20211;-73
2022/07/20 11:52:05;;;;;;;2.58;2.17;;;50.90;29.30;;;;;;6153986;23;20552;-73
2022/07/20 11:54:35;;;;;;;2.30;2.20;;;50.70;29.40;;;;;;6154074;23;20568;-72
2022/07/20 11:57:02;;;;;;;2.22;2.03;;;50.50;29.50;;;;;;6154070;23;20133;-73
2022/07/20 11:59:28;;;;;;;2.65;2.13;;;50.30;29.20;;;;;;6153657;23;20142;-74
2022/07/20 12:01:57;;;;;;;3.60;2.50;;;50.30;29.50;;;;;;6154031;23;20220;-71
2022/07/20 12:04:23;;;;;;;5.72;2.35;;;49.90;29.60;;;;;;6153781;23;20153;-72
2022/07/20 12:06:54;;;;;;;3.70;2.30;;;49.80;29.30;;;;;;6153627;23;20163;-71
2022/07/20 12:09:30;;;;;;;4.15;2.17;;;49.50;29.90;;;;;;6153588;23;20137;-72
2022/07/20 12:12:06;;;;;;;3.35;2.30;;;49.40;30.00;;;;;;6153843;23;20176;-73
2022/07/20 12:14:40;;;;;;;2.60;2.38;;;48.80;30.00;;;;;;6154349;23;20179;-73
2022/07/20 12:17:23;;;;;;;3.28;2.33;;;48.20;30.90;;;;;;6153600;23;20236;-74
2022/07/20 12:19:51;;;;;;;2.53;2.33;;;47.70;30.70;;;;;;6154019;23;20153;-72
2022/07/20 12:22:19;;;;;;;2.72;2.35;;;48.20;30.20;;;;;;6154323;23;20175;-74
2022/07/20 12:24:57;;;;;;;3.25;2.20;;;48.30;30.20;;;;;;6154277;23;20163;-75
2022/07/20 12:27:25;;;;;;;2.97;2.25;;;48.90;30.10;;;;;;6154379;23;20137;-74
2022/07/20 12:29:52;;;;;;;3.50;2.33;;;48.80;30.10;;;;;;6154527;23;20149;-77
2022/07/20 12:32:36;;;;;;;2.40;2.20;;;49.10;29.80;;;;;;6154737;23;20612;-73
2022/07/20 12:35:05;;;;;;;3.47;2.05;;;48.60;30.00;;;;;;6154132;23;20638;-73
2022/07/20 12:37:55;;;;;;;1.70;1.60;;;48.40;29.90;;;;;;6154529;23;20144;-73
2022/07/20 12:40:42;;;;;;;2.25;1.90;;;48.60;30.00;;;;;;6154246;23;20448;-72
2022/07/20 12:43:30;;;;;;;3.88;1.92;;;48.50;29.90;;;;;;6154110;23;20160;-73
2022/07/20 12:46:08;;;;;;;2.17;2.08;;;48.20;29.80;;;;;;6152636;23;20151;-71
2022/07/20 12:48:41;;;;;;;6.95;2.13;;;49.10;29.80;;;;;;6153492;23;20140;-71
2022/07/20 12:51:08;;;;;;;2.33;1.90;;;50.00;30.00;;;;;;6153699;23;20169;-72
2022/07/20 12:53:36;;;;;;;3.03;2.13;;;50.90;28.80;;;;;;6154484;23;20165;-74
2022/07/20 12:56:03;;;;;;;2.08;1.98;;;52.10;29.20;;;;;;6155112;23;20545;-72